Time;durP1;ratioP1;P1;durP2;ratioP2;P2;SDS_P1;SDS_P2;PMS_P1;PMS_P2;Temp;Humidity;BMP_temperature;BMP_pressure;BME280_temperature;BME280_humidity;BME280_pressure;Samples;Min_cycle;Max_cycle;Signal;HPM_P1;HPM_P2
2022/04/10 00:00:39;;;;;;;2.12;1.50;;;;;;;8.63;52.41;99366.38;4496701;31;33887;-86
2022/04/10 00:03:08;;;;;;;2.97;1.48;;;;;;;8.78;51.80;99356.09;4490999;31;33138;-87
2022/04/10 00:05:41;;;;;;;2.08;1.10;;;;;;;8.65;52.64;99353.16;4492324;31;33803;-87
2022/04/10 00:08:09;;;;;;;5.07;1.52;;;;;;;8.54;52.96;99355.38;4492244;31;34389;-85
2022/04/10 00:10:37;;;;;;;2.15;1.08;;;;;;;8.50;53.48;99349.41;4472528;31;33152;-85
2022/04/10 00:13:04;;;;;;;3.47;1.90;;;;;;;8.51;54.06;99340.59;4463628;32;33498;-85
2022/04/10 00:15:32;;;;;;;5.50;2.08;;;;;;;8.34;54.95;99343.88;4492442;31;33939;-85
2022/04/10 00:18:00;;;;;;;1.87;1.42;;;;;;;8.46;54.64;99342.56;4496978;31;33790;-85
2022/04/10 00:20:28;;;;;;;1.85;1.52;;;;;;;8.55;53.87;99336.91;4482905;31;33743;-85
2022/04/10 00:22:55;;;;;;;3.17;1.27;;;;;;;8.60;53.77;99329.66;4476662;32;34123;-85
2022/04/10 00:25:24;;;;;;;2.08;1.45;;;;;;;8.77;53.24;99336.81;4485742;31;33942;-84
2022/04/10 00:27:51;;;;;;;2.37;1.75;;;;;;;8.97;51.52;99346.47;4476234;31;32740;-84
2022/04/10 00:30:19;;;;;;;3.33;1.83;;;;;;;8.61;52.80;99348.94;4488151;31;34060;-84
2022/04/10 00:32:48;;;;;;;3.25;1.40;;;;;;;8.83;51.84;99349.72;4478323;31;34932;-84
2022/04/10 00:35:15;;;;;;;1.45;1.05;;;;;;;8.46;53.49;99353.94;4492376;31;33574;-84
2022/04/10 00:37:44;;;;;;;1.67;1.33;;;;;;;8.42;53.42;99354.97;4477670;31;34178;-84
2022/04/10 00:40:12;;;;;;;1.75;1.35;;;;;;;8.51;52.78;99350.25;4488426;31;34092;-84
2022/04/10 00:42:45;;;;;;;2.00;1.60;;;;;;;8.64;52.51;99351.41;4496115;31;34205;-85
2022/04/10 00:45:14;;;;;;;3.08;1.55;;;;;;;8.45;53.31;99357.50;4479815;31;32879;-85
2022/04/10 00:47:44;;;;;;;2.75;1.60;;;;;;;8.26;54.55;99346.00;4479902;31;33144;-85
2022/04/10 00:50:14;;;;;;;1.58;1.37;;;;;;;8.37;54.33;99346.44;4489658;31;33883;-85
2022/04/10 00:52:43;;;;;;;3.53;1.80;;;;;;;8.26;54.66;99351.25;4466800;31;33509;-85
2022/04/10 00:55:11;;;;;;;2.35;1.50;;;;;;;7.92;56.11;99362.25;4487956;31;32480;-84
2022/04/10 00:57:39;;;;;;;2.45;1.75;;;;;;;7.94;55.66;99376.22;4478916;31;33407;-84
2022/04/10 01:00:14;;;;;;;1.65;1.23;;;;;;;8.18;55.22;99375.22;4474608;31;33996;-85
2022/04/10 01:02:42;;;;;;;4.90;2.15;;;;;;;8.10;55.54;99373.81;4473382;31;34168;-84
2022/04/10 01:05:11;;;;;;;1.70;1.27;;;;;;;8.08;55.54;99391.44;4491308;31;34350;-86
2022/04/10 01:07:39;;;;;;;2.05;1.60;;;;;;;8.23;55.04;99388.19;4468233;31;33051;-85
2022/04/10 01:10:08;;;;;;;2.90;1.77;;;;;;;8.14;55.75;99399.09;4478639;31;32604;-85
2022/04/10 01:12:37;;;;;;;4.90;1.52;;;;;;;8.17;55.64;99398.97;4474422;31;33316;-85
2022/04/10 01:15:05;;;;;;;3.72;1.87;;;;;;;8.04;56.15;99398.59;4474094;31;32275;-86
2022/04/10 01:17:35;;;;;;;2.22;1.60;;;;;;;7.48;57.85;99392.91;4485811;31;33327;-86
2022/04/10 01:20:03;;;;;;;2.70;1.70;;;;;;;7.53;57.33;99401.47;4482229;31;32971;-85
2022/04/10 01:22:35;;;;;;;2.87;1.80;;;;;;;7.67;57.50;99404.44;4488489;31;33683;-85
2022/04/10 01:25:05;;;;;;;2.42;1.50;;;;;;;7.96;56.23;99404.16;4476680;31;33653;-85
2022/04/10 01:27:36;;;;;;;3.15;1.92;;;;;;;7.36;58.20;99402.97;4467263;31;33030;-85
2022/04/10 01:30:06;;;;;;;2.15;1.58;;;;;;;7.41;58.53;99408.06;4479453;31;32964;-85
2022/04/10 01:32:34;;;;;;;2.65;2.15;;;;;;;7.39;58.57;99409.84;4473747;31;34741;-85
2022/04/10 01:35:03;;;;;;;4.20;2.00;;;;;;;7.08;58.95;99415.38;4475843;31;32389;-84
2022/04/10 01:37:34;;;;;;;2.47;1.77;;;;;;;7.42;58.26;99417.62;4498118;31;33778;-84
2022/04/10 01:40:04;;;;;;;2.15;1.60;;;;;;;7.78;56.67;99423.25;4497632;31;33381;-84
2022/04/10 01:42:32;;;;;;;3.70;2.05;;;;;;;7.61;57.35;99409.94;4494187;31;33712;-84
2022/04/10 01:45:00;;;;;;;2.12;1.83;;;;;;;7.14;58.85;99425.66;4488170;31;33357;-83
2022/04/10 01:47:29;;;;;;;2.20;1.80;;;;;;;7.60;56.96;99416.09;4486343;31;34576;-84
2022/04/10 01:49:57;;;;;;;2.72;1.70;;;;;;;7.65;56.95;99422.03;4497352;31;33931;-84
2022/04/10 01:52:25;;;;;;;2.55;1.58;;;;;;;7.61;57.21;99428.31;4477893;31;32246;-84
2022/04/10 01:54:53;;;;;;;1.92;1.65;;;;;;;7.53;57.00;99430.37;4488157;31;33168;-83
2022/04/10 01:57:21;;;;;;;4.20;1.80;;;;;;;7.26;57.50;99422.56;4472409;31;32968;-83
2022/04/10 01:59:49;;;;;;;3.62;1.85;;;;;;;7.40;57.93;99422.91;4486542;31;33752;-83
2022/04/10 02:02:16;;;;;;;2.00;1.60;;;;;;;7.29;57.76;99424.25;4475191;31;33941;-84
2022/04/10 02:04:45;;;;;;;4.65;2.05;;;;;;;7.38;57.47;99424.75;4493593;31;33334;-84
2022/04/10 02:07:13;;;;;;;1.80;1.55;;;;;;;7.16;58.34;99429.06;4490785;31;33521;-85
2022/04/10 02:09:42;;;;;;;1.90;1.67;;;;;;;7.48;57.40;99432.31;4476691;31;33354;-85
2022/04/10 02:12:10;;;;;;;3.00;1.87;;;;;;;7.43;57.25;99435.09;4477032;31;33836;-85
2022/04/10 02:14:38;;;;;;;3.75;1.90;;;;;;;7.05;58.59;99432.09;4490658;31;33743;-86
2022/04/10 02:17:05;;;;;;;3.95;1.77;;;;;;;7.03;58.62;99435.69;4492130;31;33498;-85
2022/04/10 02:19:34;;;;;;;2.67;1.67;;;;;;;6.58;59.29;99436.34;4473796;31;34000;-85
2022/04/10 02:22:01;;;;;;;2.58;1.37;;;;;;;6.78;59.09;99443.53;4483376;31;33483;-85
2022/04/10 02:24:29;;;;;;;2.87;1.73;;;;;;;7.01;58.34;99443.59;4465610;31;32624;-84
2022/04/10 02:26:57;;;;;;;3.72;1.45;;;;;;;6.60;60.10;99451.13;4481039;31;33440;-85
2022/04/10 02:29:24;;;;;;;4.15;1.87;;;;;;;6.90;58.44;99443.97;4494035;31;33937;-85
2022/04/10 02:31:52;;;;;;;2.22;1.60;;;;;;;6.37;60.20;99457.12;4480220;31;33722;-86
2022/04/10 02:34:21;;;;;;;2.10;1.83;;;;;;;6.54;59.81;99466.19;4496660;31;33949;-85
2022/04/10 02:36:49;;;;;;;2.17;1.42;;;;;;;6.58;59.53;99454.69;4493800;31;33010;-85
2022/04/10 02:39:17;;;;;;;3.40;1.60;;;;;;;6.61;59.96;99454.59;4495886;31;34837;-84
2022/04/10 02:41:45;;;;;;;2.25;1.55;;;;;;;6.97;58.46;99449.00;4479874;31;35143;-85
2022/04/10 02:44:14;;;;;;;2.78;2.05;;;;;;;6.69;59.39;99452.56;4490919;31;33527;-84
2022/04/10 02:46:41;;;;;;;3.67;1.77;;;;;;;6.45;60.06;99453.38;4478123;31;33499;-84
2022/04/10 02:49:09;;;;;;;2.10;1.62;;;;;;;6.48;60.22;99455.91;4478246;31;32538;-84
2022/04/10 02:51:36;;;;;;;3.10;1.83;;;;;;;6.43;60.19;99461.28;4479137;31;33177;-84
2022/04/10 02:54:04;;;;;;;2.05;1.52;;;;;;;6.62;59.06;99454.53;4477358;32;32730;-84
2022/04/10 02:56:51;;;;;;;2.45;1.90;;;;;;;6.72;58.53;99462.97;4478066;31;36121;-84
2022/04/10 02:59:37;;;;;;;3.33;2.15;;;;;;;6.66;58.85;99465.81;4481227;31;34663;-84
2022/04/10 03:02:24;;;;;;;7.55;1.80;;;;;;;7.03;57.25;99469.81;4490922;31;34538;-84
2022/04/10 03:05:10;;;;;;;4.00;2.00;;;;;;;6.56;59.38;99480.13;4481880;31;34195;-84
2022/04/10 03:07:59;;;;;;;3.30;1.95;;;;;;;6.46;59.33;99478.69;4462166;31;34571;-84
2022/04/10 03:10:46;;;;;;;2.33;1.70;;;;;;;6.75;58.72;99483.00;4491633;31;34442;-84
2022/04/10 03:13:32;;;;;;;4.40;2.05;;;;;;;6.53;59.32;99491.56;4480865;31;34761;-83
2022/04/10 03:16:19;;;;;;;2.78;1.58;;;;;;;6.26;60.01;99493.28;4481724;31;35262;-83
2022/04/10 03:19:05;;;;;;;2.42;1.92;;;;;;;6.28;60.28;99501.97;4481227;31;34594;-83
2022/04/10 03:21:52;;;;;;;2.67;1.65;;;;;;;6.57;59.51;99510.69;4491266;31;34792;-83
2022/04/10 03:24:39;;;;;;;3.62;1.85;;;;;;;6.54;59.08;99513.41;4493844;31;35526;-85
2022/04/10 03:27:26;;;;;;;1.85;1.73;;;;;;;6.60;59.13;99516.72;4479722;31;34999;-84
2022/04/10 03:30:13;;;;;;;6.55;2.25;;;;;;;6.81;58.49;99515.13;4481033;31;35246;-84
2022/04/10 03:32:59;;;;;;;2.80;2.10;;;;;;;6.11;60.81;99520.81;4485486;31;34761;-84
2022/04/10 03:35:47;;;;;;;2.12;1.60;;;;;;;6.28;60.62;99517.72;4493574;31;34503;-84
2022/04/10 03:38:34;;;;;;;2.25;1.87;;;;;;;6.43;59.86;99524.25;4490065;31;35289;-84
2022/04/10 03:41:20;;;;;;;4.70;2.12;;;;;;;6.59;58.98;99535.94;4478944;31;34242;-84
2022/04/10 03:44:07;;;;;;;2.60;1.85;;;;;;;6.28;60.32;99533.44;4490102;31;34799;-84
2022/04/10 03:46:53;;;;;;;4.65;2.28;;;;;;;5.89;61.50;99530.22;4489307;31;34893;-83
2022/04/10 03:49:40;;;;;;;4.70;2.50;;;;;;;5.78;62.09;99533.12;4491982;31;34433;-83
2022/04/10 03:52:26;;;;;;;3.45;1.80;;;;;;;5.96;61.29;99546.63;4490262;31;34142;-83
2022/04/10 03:55:13;;;;;;;3.28;2.00;;;;;;;5.79;61.96;99540.09;4491022;31;34439;-83
2022/04/10 03:58:00;;;;;;;3.33;2.22;;;;;;;5.82;61.94;99539.13;4478887;31;34833;-82
2022/04/10 04:00:47;;;;;;;3.83;1.80;;;;;;;6.13;61.15;99549.63;4488728;31;34419;-83
2022/04/10 04:03:35;;;;;;;3.90;2.08;;;;;;;6.32;60.54;99550.81;4492893;31;35463;-83
2022/04/10 04:06:22;;;;;;;4.00;2.53;;;;;;;6.15;61.09;99556.53;4481339;31;34339;-86
2022/04/10 04:09:08;;;;;;;3.65;2.45;;;;;;;5.81;61.65;99556.63;4489748;31;34869;-85
2022/04/10 04:11:55;;;;;;;3.20;2.60;;;;;;;5.89;61.77;99553.81;4492431;31;34865;-86
2022/04/10 04:14:42;;;;;;;2.15;1.60;;;;;;;6.47;59.73;99554.72;4480882;31;35670;-86
2022/04/10 04:17:29;;;;;;;2.97;2.00;;;;;;;6.49;59.41;99563.38;4486210;31;34515;-85
2022/04/10 04:20:15;;;;;;;5.72;2.20;;;;;;;6.06;61.36;99564.66;4493375;31;34970;-83
2022/04/10 04:23:02;;;;;;;2.62;2.17;;;;;;;6.32;60.36;99571.78;4488552;31;33906;-84
2022/04/10 04:25:49;;;;;;;2.50;1.92;;;;;;;6.18;60.79;99567.84;4489794;31;36109;-83
2022/04/10 04:28:36;;;;;;;3.00;1.83;;;;;;;5.92;61.54;99579.06;4476545;31;34503;-83
2022/04/10 04:31:23;;;;;;;5.00;2.78;;;;;;;6.12;61.21;99568.88;4493750;31;34502;-83
2022/04/10 04:34:12;;;;;;;4.50;2.28;;;;;;;5.90;61.65;99574.72;4493344;31;34211;-85
2022/04/10 04:36:58;;;;;;;4.68;3.28;;;;;;;6.20;60.88;99574.75;4484436;31;34540;-85
2022/04/10 04:39:45;;;;;;;7.15;3.60;;;;;;;6.35;60.91;99582.16;4462805;31;36073;-85
2022/04/10 04:42:32;;;;;;;4.37;2.70;;;;;;;6.14;61.75;99583.66;4478692;31;35705;-85
2022/04/10 04:45:18;;;;;;;4.37;2.97;;;;;;;5.87;62.24;99585.28;4486437;31;34327;-83
2022/04/10 04:48:10;;;;;;;5.93;3.12;;;;;;;6.03;61.96;99590.09;4491460;31;34576;-82
2022/04/10 04:50:57;;;;;;;4.72;3.08;;;;;;;6.37;60.88;99580.38;4493878;31;34438;-83
2022/04/10 04:53:44;;;;;;;5.12;2.35;;;;;;;5.95;62.04;99592.09;4480612;31;34520;-83
2022/04/10 04:56:31;;;;;;;2.53;2.25;;;;;;;5.99;61.95;99588.50;4488440;31;33230;-83
2022/04/10 04:59:17;;;;;;;5.70;2.50;;;;;;;6.04;61.79;99603.19;4490960;31;34531;-83
2022/04/10 05:02:05;;;;;;;4.70;2.20;;;;;;;6.37;61.03;99600.50;4486163;31;35679;-82
2022/04/10 05:04:52;;;;;;;2.80;2.28;;;;;;;6.08;62.14;99617.06;4489540;31;34985;-82
2022/04/10 05:07:38;;;;;;;2.80;2.15;;;;;;;6.35;61.15;99611.00;4495169;31;35158;-82
2022/04/10 05:10:25;;;;;;;4.80;2.10;;;;;;;6.47;60.77;99612.41;4478128;31;34619;-82
2022/04/10 05:13:12;;;;;;;2.92;2.00;;;;;;;6.74;60.14;99615.97;4488335;31;34252;-82
2022/04/10 05:15:59;;;;;;;5.50;2.90;;;;;;;6.23;61.55;99614.00;4490916;31;35205;-82
2022/04/10 05:18:52;;;;;;;3.45;2.20;;;;;;;6.34;60.87;99617.16;4483116;31;34427;-82
2022/04/10 05:21:39;;;;;;;3.47;2.03;;;;;;;6.59;60.95;99617.28;4491232;31;34293;-82
2022/04/10 05:24:26;;;;;;;4.25;2.22;;;;;;;6.96;59.60;99621.38;4481356;31;34677;-83
2022/04/10 05:27:13;;;;;;;4.37;2.50;;;;;;;6.88;59.63;99616.41;4493413;31;34754;-82
2022/04/10 05:29:59;;;;;;;3.22;2.40;;;;;;;6.84;59.54;99627.03;4466302;31;35210;-83
2022/04/10 05:32:45;;;;;;;4.72;2.45;;;;;;;7.22;58.74;99627.59;4482923;31;34263;-82
2022/04/10 05:35:32;;;;;;;3.05;2.47;;;;;;;6.95;58.68;99630.19;4492547;31;34792;-82
2022/04/10 05:38:19;;;;;;;3.97;3.12;;;;;;;6.99;58.92;99638.81;4491278;31;36611;-82
2022/04/10 05:41:06;;;;;;;3.83;2.35;;;;;;;7.14;58.82;99640.97;4493157;31;35345;-83
2022/04/10 05:43:53;;;;;;;2.70;2.12;;;;;;;7.27;58.18;99642.28;4479581;31;34552;-83
2022/04/10 05:46:39;;;;;;;2.55;2.35;;;;;;;7.27;57.73;99639.66;4480788;31;34314;-83
2022/04/10 05:49:32;;;;;;;3.40;2.45;;;;;;;6.93;59.51;99651.25;4492456;31;35797;-83
2022/04/10 05:52:19;;;;;;;2.80;1.90;;;;;;;7.41;58.67;99649.72;4483385;31;35256;-83
2022/04/10 05:55:07;;;;;;;4.28;2.40;;;;;;;7.34;58.80;99645.56;4489906;31;35182;-83
2022/04/10 05:57:53;;;;;;;2.35;2.05;;;;;;;7.59;57.60;99648.22;4487994;31;35756;-83
2022/04/10 06:00:42;;;;;;;4.68;2.70;;;;;;;7.98;57.28;99650.41;4456166;32;34430;-83
2022/04/10 06:03:29;;;;;;;3.97;2.28;;;;;;;7.73;57.33;99648.59;4470087;32;34905;-83
2022/04/10 06:06:18;;;;;;;2.72;2.12;;;;;;;8.07;56.54;99661.44;4459449;32;34527;-84
2022/04/10 06:09:05;;;;;;;2.62;2.22;;;;;;;7.96;56.92;99653.91;4456729;32;34668;-83
2022/04/10 06:11:52;;;;;;;4.18;2.20;;;;;;;7.63;57.26;99665.59;4464501;32;35647;-83
2022/04/10 06:14:38;;;;;;;2.30;2.10;;;;;;;8.09;56.49;99664.88;4463284;32;34317;-83
2022/04/10 06:17:09;;;;;;;3.62;2.17;;;;;;;8.21;56.96;99672.31;4437256;32;33056;-83
2022/04/10 06:19:37;;;;;;;2.45;2.15;;;;;;;8.11;56.06;99673.53;4461696;32;34792;-83
2022/04/10 06:22:08;;;;;;;4.22;2.55;;;;;;;8.38;55.64;99663.84;4459626;32;33903;-83
2022/04/10 06:24:36;;;;;;;5.15;2.50;;;;;;;8.57;54.71;99660.53;4445819;32;34303;-83
2022/04/10 06:27:04;;;;;;;4.22;2.67;;;;;;;8.42;53.79;99667.22;4463787;32;34569;-83
2022/04/10 06:29:32;;;;;;;4.40;2.58;;;;;;;8.32;54.21;99677.19;4462626;32;33578;-83
2022/04/10 06:32:00;;;;;;;8.13;2.25;;;;;;;8.44;54.32;99675.91;4437665;32;34098;-83
2022/04/10 06:34:28;;;;;;;3.58;2.33;;;;;;;8.49;55.02;99673.97;4457445;32;33262;-83
2022/04/10 06:36:57;;;;;;;3.95;2.67;;;;;;;8.50;55.11;99680.06;4451490;32;33229;-83
2022/04/10 06:39:25;;;;;;;3.25;2.60;;;;;;;8.59;55.28;99690.25;4431791;32;35085;-83
2022/04/10 06:41:53;;;;;;;2.80;2.45;;;;;;;8.46;55.65;99684.62;4457779;32;33091;-83
2022/04/10 06:44:22;;;;;;;3.33;2.53;;;;;;;8.69;54.34;99683.75;4429180;32;33900;-83
2022/04/10 06:46:49;;;;;;;2.85;2.62;;;;;;;8.88;54.11;99687.41;4451222;32;33049;-83
2022/04/10 06:49:18;;;;;;;5.82;3.45;;;;;;;8.75;54.13;99686.16;4436637;32;32030;-83
2022/04/10 06:51:46;;;;;;;3.85;2.62;;;;;;;8.53;55.21;99695.75;4456446;32;33372;-83
2022/04/10 06:54:15;;;;;;;4.22;2.80;;;;;;;9.12;53.72;99697.91;4436440;32;33597;-83
2022/04/10 06:56:44;;;;;;;3.95;2.35;;;;;;;9.15;53.24;99695.13;4469732;32;33869;-83
2022/04/10 06:59:12;;;;;;;3.15;2.40;;;;;;;9.58;51.37;99693.41;4462332;31;33683;-83
2022/04/10 07:01:40;;;;;;;3.45;2.53;;;;;;;9.59;51.90;99709.16;4491233;31;33995;-83
2022/04/10 07:04:09;;;;;;;6.68;2.97;;;;;;;9.65;51.75;99710.69;4479307;31;33028;-82
2022/04/10 07:06:36;;;;;;;3.50;2.10;;;;;;;9.67;50.79;99706.19;4487760;31;33778;-84
2022/04/10 07:09:04;;;;;;;4.65;2.67;;;;;;;9.55;51.47;99714.62;4489814;31;33655;-83
2022/04/10 07:11:32;;;;;;;4.00;2.05;;;;;;;9.32;52.35;99713.78;4465559;31;32730;-83
2022/04/10 07:14:02;;;;;;;2.67;2.20;;;;;;;9.90;51.04;99710.50;4479599;31;33104;-83
2022/04/10 07:16:29;;;;;;;2.67;2.28;;;;;;;10.15;50.86;99711.16;4478576;31;32869;-82
2022/04/10 07:18:57;;;;;;;3.95;2.55;;;;;;;10.16;49.98;99712.91;4488948;31;34759;-83
2022/04/10 07:24:12;;;;;;;4.05;2.20;;;;;;;10.22;50.59;99711.78;4478869;31;36403;-83
2022/04/10 07:26:40;;;;;;;3.17;2.30;;;;;;;10.19;51.09;99722.44;4478479;31;32351;-83
2022/04/10 07:29:12;;;;;;;2.25;2.05;;;;;;;10.64;49.20;99716.12;4476470;31;33959;-83
2022/04/10 07:31:40;;;;;;;3.85;2.30;;;;;;;10.71;50.38;99718.37;4478094;31;34416;-83
2022/04/10 07:34:08;;;;;;;5.35;2.33;;;;;;;10.92;48.29;99719.22;4477162;31;34447;-84
2022/04/10 07:36:39;;;;;;;3.55;2.65;;;;;;;10.95;48.40;99723.47;4465875;31;33354;-82
2022/04/10 07:39:08;;;;;;;3.78;2.17;;;;;;;11.07;48.23;99716.78;4488947;31;34470;-82
2022/04/10 07:41:37;;;;;;;4.03;2.28;;;;;;;11.04;48.72;99717.75;4464741;31;33808;-84
2022/04/10 07:44:05;;;;;;;2.85;1.40;;;;;;;11.23;48.66;99725.69;4491948;31;33896;-84
2022/04/10 07:49:20;;;;;;;3.53;2.20;;;;;;;11.14;45.74;99734.03;4477392;31;34114;-84
2022/04/10 07:51:49;;;;;;;2.95;1.77;;;;;;;11.08;47.29;99736.97;4494188;31;33837;-84
2022/04/10 07:54:18;;;;;;;3.60;2.08;;;;;;;10.67;47.63;99734.44;4477760;31;33240;-84
2022/04/10 07:56:46;;;;;;;2.37;2.05;;;;;;;10.72;47.53;99751.78;4490692;31;34463;-84
2022/04/10 07:59:16;;;;;;;2.53;1.60;;;;;;;11.23;48.64;99739.75;4475870;31;33823;-82
2022/04/10 08:01:44;;;;;;;2.28;2.00;;;;;;;11.62;45.05;99738.75;4477102;31;33078;-82
2022/04/10 08:04:12;;;;;;;3.42;3.03;;;;;;;11.42;45.87;99744.16;4478928;31;33246;-83
2022/04/10 08:06:40;;;;;;;4.30;2.40;;;;;;;11.12;47.73;99763.19;4477544;31;33798;-83
2022/04/10 08:09:08;;;;;;;2.67;2.03;;;;;;;11.37;46.62;99762.88;4489437;31;33465;-81
2022/04/10 08:11:36;;;;;;;3.65;2.70;;;;;;;11.84;44.40;99749.19;4490437;31;34339;-83
2022/04/10 08:14:04;;;;;;;4.97;2.85;;;;;;;11.97;46.58;99757.37;4480774;31;32060;-83
2022/04/10 08:16:32;;;;;;;3.42;1.90;;;;;;;11.66;48.41;99752.69;4492484;31;33658;-83
2022/04/10 08:19:00;;;;;;;4.62;2.40;;;;;;;11.77;47.18;99760.94;4477869;31;33514;-83
2022/04/10 08:21:28;;;;;;;4.50;2.53;;;;;;;12.08;45.45;99756.81;4495758;31;33843;-83
2022/04/10 08:23:56;;;;;;;2.70;1.77;;;;;;;12.11;45.65;99762.81;4474964;31;32190;-83
2022/04/10 08:26:24;;;;;;;2.10;1.75;;;;;;;12.14;43.85;99760.00;4488284;31;33569;-83
2022/04/10 08:28:51;;;;;;;1.90;1.75;;;;;;;12.27;43.19;99747.88;4495119;31;33754;-83
2022/04/10 08:31:19;;;;;;;2.72;1.77;;;;;;;12.02;44.41;99756.19;4475865;31;33048;-83
2022/04/10 08:33:50;;;;;;;3.30;1.83;;;;;;;12.29;44.35;99759.22;4475836;31;32565;-84
2022/04/10 08:36:18;;;;;;;2.92;1.80;;;;;;;12.16;45.77;99758.16;4491085;31;33894;-83
2022/04/10 08:38:46;;;;;;;1.70;1.58;;;;;;;12.27;43.85;99754.94;4492776;31;34409;-84
2022/04/10 08:41:14;;;;;;;2.45;1.73;;;;;;;12.59;43.01;99750.63;4475619;31;34420;-83
2022/04/10 08:43:41;;;;;;;2.00;1.60;;;;;;;12.36;42.29;99751.84;4479256;31;32694;-83
2022/04/10 08:46:11;;;;;;;2.87;2.28;;;;;;;12.19;44.11;99762.41;4480900;31;33479;-83
2022/04/10 08:48:39;;;;;;;3.58;1.52;;;;;;;12.43;43.30;99757.66;4476114;32;33657;-83
2022/04/10 08:51:09;;;;;;;2.50;1.35;;;;;;;12.49;41.04;99755.56;4486425;31;33461;-83
2022/04/10 08:53:37;;;;;;;3.97;1.45;;;;;;;12.37;41.33;99763.28;4478794;32;32669;-83
2022/04/10 08:56:07;;;;;;;1.45;1.30;;;;;;;12.74;39.58;99770.16;4475270;31;33941;-84
2022/04/10 08:58:35;;;;;;;1.58;1.48;;;;;;;12.24;42.38;99770.97;4474092;32;33914;-83
2022/04/10 09:01:02;;;;;;;1.83;1.70;;;;;;;12.60;40.70;99775.31;4492340;31;33831;-83
2022/04/10 09:03:31;;;;;;;2.22;1.40;;;;;;;12.69;39.48;99764.25;4478636;31;32943;-83
2022/04/10 09:06:03;;;;;;;2.00;1.70;;;;;;;12.63;40.24;99757.50;4494705;31;33513;-84
2022/04/10 09:08:32;;;;;;;2.75;1.30;;;;;;;12.90;40.40;99760.44;4493974;31;33594;-83
2022/04/10 09:11:08;;;;;;;3.15;1.52;;;;;;;12.39;40.63;99774.63;4479395;31;33922;-84
2022/04/10 09:13:38;;;;;;;2.00;1.75;;;;;;;12.28;43.16;99783.12;4478062;32;33475;-84
2022/04/10 09:16:12;;;;;;;3.65;1.65;;;;;;;12.54;41.43;99772.06;4483775;31;33486;-84
2022/04/10 09:19:00;;;;;;;2.22;1.60;;;;;;;12.60;40.62;99780.63;4485315;31;33629;-83
2022/04/10 09:21:29;;;;;;;1.20;1.10;;;;;;;12.42;40.40;99775.34;4491613;31;34131;-83
2022/04/10 09:24:02;;;;;;;1.70;1.50;;;;;;;12.61;40.16;99759.34;4478109;31;32832;-83
2022/04/10 09:26:51;;;;;;;2.72;1.52;;;;;;;12.03;41.17;99768.50;4480110;31;34092;-83
2022/04/10 09:29:21;;;;;;;4.87;1.70;;;;;;;12.15;41.48;99756.41;4464011;31;33343;-83
2022/04/10 09:31:49;;;;;;;1.87;1.48;;;;;;;11.93;42.65;99772.53;4480146;31;33019;-83
2022/04/10 09:34:19;;;;;;;1.83;1.20;;;;;;;12.35;42.17;99771.31;4486733;31;33280;-83
2022/04/10 09:37:07;;;;;;;2.35;1.17;;;;;;;12.24;40.34;99776.28;4465666;31;32868;-83
2022/04/10 09:39:36;;;;;;;2.22;1.37;;;;;;;12.45;40.69;99767.25;4465785;31;32915;-83
2022/04/10 09:42:14;;;;;;;1.62;1.52;;;;;;;12.52;41.57;99786.31;4491901;31;33773;-83
2022/04/10 09:45:02;;;;;;;1.92;1.73;;;;;;;12.56;42.33;99778.13;4480795;31;33002;-83
2022/04/10 09:47:29;;;;;;;1.35;1.25;;;;;;;13.18;39.14;99785.44;4491729;31;33658;-83
2022/04/10 09:50:05;;;;;;;1.55;0.98;;;;;;;12.97;38.20;99784.84;4466419;31;32191;-83
2022/04/10 09:52:36;;;;;;;1.98;1.27;;;;;;;12.77;37.42;99791.16;4491891;31;31941;-83
2022/04/10 09:55:08;;;;;;;1.73;1.17;;;;;;;13.03;37.77;99782.69;4479632;31;33762;-83
2022/04/10 09:57:35;;;;;;;3.08;1.50;;;;;;;12.99;39.42;99781.16;4479812;31;33138;-82
2022/04/10 10:00:07;;;;;;;3.83;2.05;;;;;;;13.41;38.63;99769.16;4478330;31;33417;-83
2022/04/10 10:02:38;;;;;;;2.45;2.03;;;;;;;13.26;40.24;99772.66;4493337;31;33971;-83
2022/04/10 10:05:07;;;;;;;1.75;1.50;;;;;;;12.83;40.73;99780.28;4479716;31;33307;-83
2022/04/10 10:07:36;;;;;;;2.28;0.90;;;;;;;12.93;39.41;99775.34;4466418;31;32907;-83
2022/04/10 10:10:04;;;;;;;4.00;1.50;;;;;;;13.10;37.00;99779.69;4491070;31;33831;-83
2022/04/10 10:12:32;;;;;;;2.25;1.10;;;;;;;12.95;36.14;99779.59;4467793;31;33543;-82
2022/04/10 10:14:59;;;;;;;3.87;1.33;;;;;;;12.79;37.53;99773.41;4472082;31;32076;-83
2022/04/10 10:17:27;;;;;;;1.52;1.10;;;;;;;12.95;38.47;99768.12;4479042;31;34853;-83
2022/04/10 10:19:56;;;;;;;1.95;1.50;;;;;;;12.74;41.59;99770.16;4480166;31;33855;-83
2022/04/10 10:22:24;;;;;;;4.60;1.85;;;;;;;13.17;38.19;99773.16;4491593;31;34775;-85
2022/04/10 10:25:00;;;;;;;1.42;1.00;;;;;;;13.07;39.03;99780.75;4491808;31;33177;-83
2022/04/10 10:27:58;;;;;;;3.12;1.33;;;;;;;13.33;37.53;99784.62;4491035;31;34236;-82
2022/04/10 10:30:44;;;;;;;3.10;1.42;;;;;;;13.22;37.69;99787.87;4469051;31;34311;-82
2022/04/10 10:33:21;;;;;;;2.05;1.50;;;;;;;13.08;40.51;99785.94;4491097;31;33220;-82
2022/04/10 10:35:51;;;;;;;4.80;1.60;;;;;;;13.25;40.13;99781.56;4489634;31;32965;-82
2022/04/10 10:38:27;;;;;;;1.70;1.40;;;;;;;13.48;38.54;99775.84;4478302;31;33065;-82
2022/04/10 10:41:15;;;;;;;1.55;1.45;;;;;;;13.53;37.87;99780.87;4473062;31;32384;-82
2022/04/10 10:43:44;;;;;;;3.25;1.60;;;;;;;13.42;38.57;99784.12;4490194;31;33345;-82
2022/04/10 10:46:20;;;;;;;4.28;1.65;;;;;;;13.22;38.94;99787.87;4490655;31;33204;-82
2022/04/10 10:49:14;;;;;;;1.23;1.10;;;;;;;13.46;38.42;99782.16;4476931;31;32703;-82
2022/04/10 10:51:51;;;;;;;1.75;1.33;;;;;;;13.58;36.98;99779.69;4462774;31;33923;-82
2022/04/10 10:54:21;;;;;;;1.42;1.27;;;;;;;13.35;37.11;99776.62;4492296;31;34532;-81
2022/04/10 10:56:50;;;;;;;2.45;1.10;;;;;;;12.78;37.85;99777.00;4492537;31;34329;-82
2022/04/10 10:59:30;;;;;;;3.80;1.02;;;;;;;13.03;37.45;99788.00;4488715;31;34580;-82
2022/04/10 11:02:14;;;;;;;1.73;1.30;;;;;;;13.11;37.14;99773.50;4490918;31;33785;-82
2022/04/10 11:05:08;;;;;;;2.92;1.08;;;;;;;13.04;37.82;99773.78;4478207;31;33786;-82
2022/04/10 11:07:41;;;;;;;1.62;1.15;;;;;;;12.82;39.37;99773.25;4477570;31;33255;-82
2022/04/10 11:10:09;;;;;;;;;;;;;;;13.18;38.27;99774.84;4477087;31;34298;-82
2022/04/10 11:12:49;;;;;;;2.50;1.20;;;;;;;13.23;37.19;99780.78;4492204;31;33574;-82
2022/04/10 11:15:28;;;;;;;2.05;1.00;;;;;;;12.63;37.51;99778.69;4477208;31;34489;-82
2022/04/10 11:18:31;;;;;;;2.08;1.12;;;;;;;12.50;37.51;99789.03;4465107;31;32933;-82
2022/04/10 11:21:13;;;;;;;2.22;1.00;;;;;;;12.66;37.33;99764.41;4478893;31;33749;-82
2022/04/10 11:23:50;;;;;;;1.87;1.20;;;;;;;12.78;38.53;99767.25;4490321;31;33630;-82
2022/04/10 11:26:19;;;;;;;2.08;0.85;;;;;;;13.04;37.52;99765.84;4487814;31;33570;-81
2022/04/10 11:28:56;;;;;;;0.55;0.52;;;;;;;13.33;35.90;99768.72;4477095;31;33930;-82
2022/04/10 11:31:30;;;;;;;0.50;0.50;;;;;;;13.13;35.29;99779.56;4476743;31;33855;-82
2022/04/10 11:34:12;;;;;;;1.05;0.57;;;;;;;13.12;34.16;99772.53;4487289;31;34653;-82
2022/04/10 11:36:50;;;;;;;0.40;0.40;;;;;;;13.22;34.26;99765.81;4491081;31;34076;-82
2022/04/10 11:39:26;;;;;;;1.12;0.65;;;;;;;13.40;33.70;99770.13;4489703;31;35308;-82
2022/04/10 11:41:58;;;;;;;1.27;0.40;;;;;;;13.58;36.82;99762.94;4490373;31;34585;-82
2022/04/10 11:44:26;;;;;;;0.52;0.52;;;;;;;14.00;36.31;99764.87;4478558;31;33218;-82
2022/04/10 11:46:54;;;;;;;0.88;0.45;;;;;;;13.95;31.67;99764.28;4473751;31;32339;-82
2022/04/10 11:49:22;;;;;;;0.62;0.50;;;;;;;13.59;33.65;99764.63;4477742;31;33567;-83
2022/04/10 11:52:02;;;;;;;2.33;0.60;;;;;;;13.94;32.46;99759.09;4477694;31;33461;-82
2022/04/10 11:54:36;;;;;;;1.37;0.60;;;;;;;13.87;33.08;99758.59;4476476;31;32835;-82
2022/04/10 11:57:05;;;;;;;1.17;0.75;;;;;;;13.82;30.47;99758.00;4487326;31;33888;-82
2022/04/10 11:59:35;;;;;;;1.48;0.47;;;;;;;13.74;31.48;99755.78;4489645;31;33114;-83
2022/04/10 12:02:04;;;;;;;1.80;0.82;;;;;;;13.85;35.21;99765.78;4465450;31;33571;-82
2022/04/10 12:04:35;;;;;;;3.90;0.70;;;;;;;14.13;31.60;99766.84;4476653;31;33529;-83
2022/04/10 12:07:11;;;;;;;1.35;0.55;;;;;;;14.29;32.77;99771.16;4476186;31;33292;-82
2022/04/10 12:09:40;;;;;;;0.93;0.40;;;;;;;14.23;31.85;99776.81;4490876;31;34383;-82
2022/04/10 12:12:08;;;;;;;0.68;0.50;;;;;;;13.52;31.27;99772.06;4464267;31;33639;-82
2022/04/10 12:14:36;;;;;;;1.83;0.60;;;;;;;13.24;32.02;99775.38;4490342;31;33689;-82
2022/04/10 12:17:12;;;;;;;1.12;0.50;;;;;;;13.19;32.63;99771.25;4476387;31;34172;-82
2022/04/10 12:19:42;;;;;;;3.55;0.50;;;;;;;13.28;32.62;99768.97;4493591;31;32633;-82